sensor_id;sensor_type;location;lat;lon;timestamp;temperature;humidity
36654;DHT22;22650;49.350;20.898;2023-11-21T00:01:39;5.00;99.90
36654;DHT22;22650;49.350;20.898;2023-11-21T00:04:12;5.00;99.90
36654;DHT22;22650;49.350;20.898;2023-11-21T00:06:47;5.00;99.90
36654;DHT22;22650;49.350;20.898;2023-11-21T00:09:21;5.00;99.90
36654;DHT22;22650;49.350;20.898;2023-11-21T00:11:55;4.90;99.90
36654;DHT22;22650;49.350;20.898;2023-11-21T00:14:30;5.00;99.90
36654;DHT22;22650;49.350;20.898;2023-11-21T00:17:03;5.00;99.90
36654;DHT22;22650;49.350;20.898;2023-11-21T00:19:37;5.00;99.90
36654;DHT22;22650;49.350;20.898;2023-11-21T00:22:11;5.00;99.90
36654;DHT22;22650;49.350;20.898;2023-11-21T00:24:45;5.00;99.90
36654;DHT22;22650;49.350;20.898;2023-11-21T00:27:19;5.00;99.90
36654;DHT22;22650;49.350;20.898;2023-11-21T00:29:54;5.00;99.90
36654;DHT22;22650;49.350;20.898;2023-11-21T00:32:27;5.10;99.90
36654;DHT22;22650;49.350;20.898;2023-11-21T00:35:01;5.10;99.90
36654;DHT22;22650;49.350;20.898;2023-11-21T00:37:35;5.10;99.90
36654;DHT22;22650;49.350;20.898;2023-11-21T00:40:12;5.10;99.90
36654;DHT22;22650;49.350;20.898;2023-11-21T00:42:47;5.10;99.90
36654;DHT22;22650;49.350;20.898;2023-11-21T00:45:22;5.10;99.90
36654;DHT22;22650;49.350;20.898;2023-11-21T00:47:56;5.10;99.90
36654;DHT22;22650;49.350;20.898;2023-11-21T00:50:31;5.10;99.90
36654;DHT22;22650;49.350;20.898;2023-11-21T00:53:05;5.10;99.90
36654;DHT22;22650;49.350;20.898;2023-11-21T00:55:40;5.10;99.90
36654;DHT22;22650;49.350;20.898;2023-11-21T00:58:13;5.10;99.90
36654;DHT22;22650;49.350;20.898;2023-11-21T01:00:48;5.10;99.90
36654;DHT22;22650;49.350;20.898;2023-11-21T01:03:22;5.10;99.90
36654;DHT22;22650;49.350;20.898;2023-11-21T01:05:56;5.10;99.90
36654;DHT22;22650;49.350;20.898;2023-11-21T01:08:29;5.10;99.90
36654;DHT22;22650;49.350;20.898;2023-11-21T01:11:04;5.10;99.90
36654;DHT22;22650;49.350;20.898;2023-11-21T01:13:40;5.10;99.90
36654;DHT22;22650;49.350;20.898;2023-11-21T01:16:16;5.10;99.90
36654;DHT22;22650;49.350;20.898;2023-11-21T01:18:49;5.10;99.90
36654;DHT22;22650;49.350;20.898;2023-11-21T01:21:23;5.10;99.90
36654;DHT22;22650;49.350;20.898;2023-11-21T01:23:56;5.10;99.90
36654;DHT22;22650;49.350;20.898;2023-11-21T01:26:30;5.10;99.90
36654;DHT22;22650;49.350;20.898;2023-11-21T01:29:04;5.10;99.90
36654;DHT22;22650;49.350;20.898;2023-11-21T01:31:39;5.10;99.90
36654;DHT22;22650;49.350;20.898;2023-11-21T01:34:13;5.10;99.90
36654;DHT22;22650;49.350;20.898;2023-11-21T01:36:47;5.10;99.90
36654;DHT22;22650;49.350;20.898;2023-11-21T01:39:21;5.10;99.90
36654;DHT22;22650;49.350;20.898;2023-11-21T01:41:56;5.10;99.90
36654;DHT22;22650;49.350;20.898;2023-11-21T01:44:30;5.10;99.90
36654;DHT22;22650;49.350;20.898;2023-11-21T01:47:05;5.00;99.90
36654;DHT22;22650;49.350;20.898;2023-11-21T01:49:39;5.00;99.90
36654;DHT22;22650;49.350;20.898;2023-11-21T01:52:15;5.00;99.90
36654;DHT22;22650;49.350;20.898;2023-11-21T01:54:48;5.00;99.90
36654;DHT22;22650;49.350;20.898;2023-11-21T01:57:22;5.00;99.90
36654;DHT22;22650;49.350;20.898;2023-11-21T01:59:56;5.00;99.90
36654;DHT22;22650;49.350;20.898;2023-11-21T02:02:33;4.90;99.90
36654;DHT22;22650;49.350;20.898;2023-11-21T02:05:07;4.90;99.90
36654;DHT22;22650;49.350;20.898;2023-11-21T02:07:42;4.90;99.90
36654;DHT22;22650;49.350;20.898;2023-11-21T02:10:16;4.90;99.90
36654;DHT22;22650;49.350;20.898;2023-11-21T02:12:55;4.90;99.90
36654;DHT22;22650;49.350;20.898;2023-11-21T02:15:29;4.80;99.90
36654;DHT22;22650;49.350;20.898;2023-11-21T02:18:04;4.80;99.90
36654;DHT22;22650;49.350;20.898;2023-11-21T02:20:39;4.80;99.90
36654;DHT22;22650;49.350;20.898;2023-11-21T02:23:15;4.70;99.90
36654;DHT22;22650;49.350;20.898;2023-11-21T02:25:50;4.70;99.90
36654;DHT22;22650;49.350;20.898;2023-11-21T02:28:24;4.70;99.90
36654;DHT22;22650;49.350;20.898;2023-11-21T02:30:58;4.70;99.90
36654;DHT22;22650;49.350;20.898;2023-11-21T02:33:32;4.70;99.90
36654;DHT22;22650;49.350;20.898;2023-11-21T02:36:07;4.80;99.90
36654;DHT22;22650;49.350;20.898;2023-11-21T02:38:42;4.70;99.90
36654;DHT22;22650;49.350;20.898;2023-11-21T02:41:16;4.70;99.90
36654;DHT22;22650;49.350;20.898;2023-11-21T02:43:50;4.70;99.90
36654;DHT22;22650;49.350;20.898;2023-11-21T02:46:24;4.70;99.90
36654;DHT22;22650;49.350;20.898;2023-11-21T02:48:57;4.70;99.90
36654;DHT22;22650;49.350;20.898;2023-11-21T02:51:31;4.70;99.90
36654;DHT22;22650;49.350;20.898;2023-11-21T02:54:07;4.70;99.90
36654;DHT22;22650;49.350;20.898;2023-11-21T02:56:41;4.70;99.90
36654;DHT22;22650;49.350;20.898;2023-11-21T02:59:14;4.70;99.90
36654;DHT22;22650;49.350;20.898;2023-11-21T03:01:48;4.60;99.90
36654;DHT22;22650;49.350;20.898;2023-11-21T03:04:22;4.60;99.90
36654;DHT22;22650;49.350;20.898;2023-11-21T03:06:58;4.70;99.90
36654;DHT22;22650;49.350;20.898;2023-11-21T03:09:33;4.70;99.90
36654;DHT22;22650;49.350;20.898;2023-11-21T03:12:07;4.70;99.90
36654;DHT22;22650;49.350;20.898;2023-11-21T03:14:41;4.70;99.90
36654;DHT22;22650;49.350;20.898;2023-11-21T03:17:14;4.70;99.90
36654;DHT22;22650;49.350;20.898;2023-11-21T03:19:48;4.70;99.90
36654;DHT22;22650;49.350;20.898;2023-11-21T03:22:22;4.70;99.90
36654;DHT22;22650;49.350;20.898;2023-11-21T03:24:57;4.70;99.90
36654;DHT22;22650;49.350;20.898;2023-11-21T03:27:31;4.70;99.90
36654;DHT22;22650;49.350;20.898;2023-11-21T03:30:07;4.80;99.90
36654;DHT22;22650;49.350;20.898;2023-11-21T03:32:42;4.80;99.90
36654;DHT22;22650;49.350;20.898;2023-11-21T03:35:15;4.80;99.90
36654;DHT22;22650;49.350;20.898;2023-11-21T03:37:49;4.80;99.90
36654;DHT22;22650;49.350;20.898;2023-11-21T03:40:24;4.80;99.90
36654;DHT22;22650;49.350;20.898;2023-11-21T03:42:58;4.80;99.90
36654;DHT22;22650;49.350;20.898;2023-11-21T03:45:31;4.80;99.90
36654;DHT22;22650;49.350;20.898;2023-11-21T03:48:05;4.80;99.90
36654;DHT22;22650;49.350;20.898;2023-11-21T03:50:42;4.80;99.90
36654;DHT22;22650;49.350;20.898;2023-11-21T03:53:15;4.80;99.90
36654;DHT22;22650;49.350;20.898;2023-11-21T03:55:50;4.80;99.90
36654;DHT22;22650;49.350;20.898;2023-11-21T03:58:24;4.80;99.90
36654;DHT22;22650;49.350;20.898;2023-11-21T04:00:58;4.80;99.90
36654;DHT22;22650;49.350;20.898;2023-11-21T04:03:31;4.80;99.90
36654;DHT22;22650;49.350;20.898;2023-11-21T04:06:05;4.80;99.90
36654;DHT22;22650;49.350;20.898;2023-11-21T04:08:39;4.80;99.90
36654;DHT22;22650;49.350;20.898;2023-11-21T04:11:14;4.80;99.90
36654;DHT22;22650;49.350;20.898;2023-11-21T04:13:48;4.80;99.90
36654;DHT22;22650;49.350;20.898;2023-11-21T04:16:21;4.80;99.90
36654;DHT22;22650;49.350;20.898;2023-11-21T04:18:55;4.80;99.90
36654;DHT22;22650;49.350;20.898;2023-11-21T04:21:29;4.80;99.90
36654;DHT22;22650;49.350;20.898;2023-11-21T04:24:03;4.70;99.90
36654;DHT22;22650;49.350;20.898;2023-11-21T04:26:38;4.70;99.90
36654;DHT22;22650;49.350;20.898;2023-11-21T04:29:12;4.70;99.90
36654;DHT22;22650;49.350;20.898;2023-11-21T04:31:47;4.60;99.90
36654;DHT22;22650;49.350;20.898;2023-11-21T04:34:21;4.60;99.90
36654;DHT22;22650;49.350;20.898;2023-11-21T04:36:55;4.60;99.90
36654;DHT22;22650;49.350;20.898;2023-11-21T04:39:28;4.60;99.90
36654;DHT22;22650;49.350;20.898;2023-11-21T04:42:04;4.60;99.90
36654;DHT22;22650;49.350;20.898;2023-11-21T04:44:37;4.60;99.90
36654;DHT22;22650;49.350;20.898;2023-11-21T04:47:13;4.60;99.90
36654;DHT22;22650;49.350;20.898;2023-11-21T04:49:46;4.60;99.90
36654;DHT22;22650;49.350;20.898;2023-11-21T04:52:20;4.60;99.90
36654;DHT22;22650;49.350;20.898;2023-11-21T04:54:54;4.60;99.90
36654;DHT22;22650;49.350;20.898;2023-11-21T04:57:31;4.60;99.90
36654;DHT22;22650;49.350;20.898;2023-11-21T05:00:06;4.60;99.90
36654;DHT22;22650;49.350;20.898;2023-11-21T05:02:40;4.60;99.90
36654;DHT22;22650;49.350;20.898;2023-11-21T05:05:16;4.50;99.90
36654;DHT22;22650;49.350;20.898;2023-11-21T05:07:50;4.60;99.90
36654;DHT22;22650;49.350;20.898;2023-11-21T05:10:25;4.50;99.90
36654;DHT22;22650;49.350;20.898;2023-11-21T05:13:00;4.50;99.90
36654;DHT22;22650;49.350;20.898;2023-11-21T05:15:34;4.50;99.90
36654;DHT22;22650;49.350;20.898;2023-11-21T05:18:07;4.50;99.90
36654;DHT22;22650;49.350;20.898;2023-11-21T05:20:42;4.50;99.90
36654;DHT22;22650;49.350;20.898;2023-11-21T05:23:16;4.50;99.90
36654;DHT22;22650;49.350;20.898;2023-11-21T05:25:49;4.50;99.90
36654;DHT22;22650;49.350;20.898;2023-11-21T05:28:25;4.50;99.90
36654;DHT22;22650;49.350;20.898;2023-11-21T05:30:59;4.40;99.90
36654;DHT22;22650;49.350;20.898;2023-11-21T05:33:47;4.40;99.90
36654;DHT22;22650;49.350;20.898;2023-11-21T05:36:21;4.40;99.90
36654;DHT22;22650;49.350;20.898;2023-11-21T05:38:54;4.40;99.90
36654;DHT22;22650;49.350;20.898;2023-11-21T05:41:28;4.30;99.90
36654;DHT22;22650;49.350;20.898;2023-11-21T05:44:03;4.30;99.90
36654;DHT22;22650;49.350;20.898;2023-11-21T05:46:37;4.30;99.90
36654;DHT22;22650;49.350;20.898;2023-11-21T05:49:11;4.30;99.90
36654;DHT22;22650;49.350;20.898;2023-11-21T05:51:44;4.20;99.90
36654;DHT22;22650;49.350;20.898;2023-11-21T05:54:18;4.20;99.90
36654;DHT22;22650;49.350;20.898;2023-11-21T05:56:52;4.20;99.90
36654;DHT22;22650;49.350;20.898;2023-11-21T05:59:27;4.20;99.90
36654;DHT22;22650;49.350;20.898;2023-11-21T06:02:00;4.30;99.90
36654;DHT22;22650;49.350;20.898;2023-11-21T06:04:34;4.30;99.90
36654;DHT22;22650;49.350;20.898;2023-11-21T06:07:08;4.30;99.90
36654;DHT22;22650;49.350;20.898;2023-11-21T06:09:42;4.30;99.90
36654;DHT22;22650;49.350;20.898;2023-11-21T06:12:17;4.30;99.90
36654;DHT22;22650;49.350;20.898;2023-11-21T06:14:53;4.30;99.90
36654;DHT22;22650;49.350;20.898;2023-11-21T06:17:27;4.40;99.90
36654;DHT22;22650;49.350;20.898;2023-11-21T06:20:01;4.40;99.90
36654;DHT22;22650;49.350;20.898;2023-11-21T06:22:36;4.40;99.90
36654;DHT22;22650;49.350;20.898;2023-11-21T06:25:11;4.40;99.90
36654;DHT22;22650;49.350;20.898;2023-11-21T06:27:47;4.40;99.90
36654;DHT22;22650;49.350;20.898;2023-11-21T06:30:22;4.40;99.90
36654;DHT22;22650;49.350;20.898;2023-11-21T06:32:56;4.40;99.90
36654;DHT22;22650;49.350;20.898;2023-11-21T06:35:29;4.50;99.90
36654;DHT22;22650;49.350;20.898;2023-11-21T06:38:06;4.50;99.90
36654;DHT22;22650;49.350;20.898;2023-11-21T06:40:41;4.50;99.90
36654;DHT22;22650;49.350;20.898;2023-11-21T06:43:15;4.50;99.90
36654;DHT22;22650;49.350;20.898;2023-11-21T06:45:51;4.60;99.90
36654;DHT22;22650;49.350;20.898;2023-11-21T06:48:25;4.60;99.90
36654;DHT22;22650;49.350;20.898;2023-11-21T06:50:59;4.60;99.90
36654;DHT22;22650;49.350;20.898;2023-11-21T06:53:33;4.70;99.90
36654;DHT22;22650;49.350;20.898;2023-11-21T06:56:15;4.70;99.90
36654;DHT22;22650;49.350;20.898;2023-11-21T06:58:49;4.70;99.90
36654;DHT22;22650;49.350;20.898;2023-11-21T07:01:27;4.70;99.90
36654;DHT22;22650;49.350;20.898;2023-11-21T07:04:01;4.80;99.90
36654;DHT22;22650;49.350;20.898;2023-11-21T07:06:35;4.80;99.90
36654;DHT22;22650;49.350;20.898;2023-11-21T07:09:10;4.90;99.90
36654;DHT22;22650;49.350;20.898;2023-11-21T07:11:45;4.90;99.90
36654;DHT22;22650;49.350;20.898;2023-11-21T07:14:20;4.90;99.90
36654;DHT22;22650;49.350;20.898;2023-11-21T07:16:55;5.00;99.90
36654;DHT22;22650;49.350;20.898;2023-11-21T07:19:29;5.00;99.90
36654;DHT22;22650;49.350;20.898;2023-11-21T07:22:03;5.00;99.90
36654;DHT22;22650;49.350;20.898;2023-11-21T07:24:38;5.00;99.90
36654;DHT22;22650;49.350;20.898;2023-11-21T07:27:13;5.10;99.90
36654;DHT22;22650;49.350;20.898;2023-11-21T07:29:46;5.10;99.90
36654;DHT22;22650;49.350;20.898;2023-11-21T07:32:22;5.20;99.90
36654;DHT22;22650;49.350;20.898;2023-11-21T07:34:56;5.20;99.90
36654;DHT22;22650;49.350;20.898;2023-11-21T07:37:32;5.20;99.90
36654;DHT22;22650;49.350;20.898;2023-11-21T07:40:06;5.20;99.90
36654;DHT22;22650;49.350;20.898;2023-11-21T07:42:41;5.30;99.90
36654;DHT22;22650;49.350;20.898;2023-11-21T07:45:15;5.30;99.90
36654;DHT22;22650;49.350;20.898;2023-11-21T07:47:50;5.30;99.90
36654;DHT22;22650;49.350;20.898;2023-11-21T07:50:24;5.30;99.90
36654;DHT22;22650;49.350;20.898;2023-11-21T07:52:59;5.30;99.90
36654;DHT22;22650;49.350;20.898;2023-11-21T07:55:33;5.40;99.90
36654;DHT22;22650;49.350;20.898;2023-11-21T07:58:06;5.40;99.90
36654;DHT22;22650;49.350;20.898;2023-11-21T08:00:40;5.50;99.90
36654;DHT22;22650;49.350;20.898;2023-11-21T08:03:16;5.60;99.90
36654;DHT22;22650;49.350;20.898;2023-11-21T08:05:50;5.60;99.90
36654;DHT22;22650;49.350;20.898;2023-11-21T08:08:24;5.70;99.90
36654;DHT22;22650;49.350;20.898;2023-11-21T08:10:58;5.80;99.90
36654;DHT22;22650;49.350;20.898;2023-11-21T08:13:34;5.90;99.90
36654;DHT22;22650;49.350;20.898;2023-11-21T08:16:08;6.10;99.90
36654;DHT22;22650;49.350;20.898;2023-11-21T08:18:43;6.30;99.90
36654;DHT22;22650;49.350;20.898;2023-11-21T08:21:17;6.50;99.90
36654;DHT22;22650;49.350;20.898;2023-11-21T08:23:51;6.80;99.90
36654;DHT22;22650;49.350;20.898;2023-11-21T08:26:26;7.10;99.90
36654;DHT22;22650;49.350;20.898;2023-11-21T08:29:00;7.30;99.90
36654;DHT22;22650;49.350;20.898;2023-11-21T08:31:33;7.40;99.90
36654;DHT22;22650;49.350;20.898;2023-11-21T08:34:09;7.60;99.90
36654;DHT22;22650;49.350;20.898;2023-11-21T08:36:42;7.70;99.90
36654;DHT22;22650;49.350;20.898;2023-11-21T08:39:16;7.90;99.90
36654;DHT22;22650;49.350;20.898;2023-11-21T08:41:51;7.90;99.90
36654;DHT22;22650;49.350;20.898;2023-11-21T08:44:25;8.10;99.90
36654;DHT22;22650;49.350;20.898;2023-11-21T08:46:59;8.20;99.90
36654;DHT22;22650;49.350;20.898;2023-11-21T08:49:34;8.30;99.90
36654;DHT22;22650;49.350;20.898;2023-11-21T08:52:08;8.60;99.90
36654;DHT22;22650;49.350;20.898;2023-11-21T08:54:42;8.80;99.90
36654;DHT22;22650;49.350;20.898;2023-11-21T08:57:17;9.00;99.90
36654;DHT22;22650;49.350;20.898;2023-11-21T08:59:50;9.20;99.90
36654;DHT22;22650;49.350;20.898;2023-11-21T09:02:27;9.30;99.90
36654;DHT22;22650;49.350;20.898;2023-11-21T09:05:03;9.40;99.90
36654;DHT22;22650;49.350;20.898;2023-11-21T09:07:39;9.50;99.90
36654;DHT22;22650;49.350;20.898;2023-11-21T09:10:13;9.60;99.90
36654;DHT22;22650;49.350;20.898;2023-11-21T09:12:47;9.80;99.90
36654;DHT22;22650;49.350;20.898;2023-11-21T09:15:20;9.80;99.90
36654;DHT22;22650;49.350;20.898;2023-11-21T09:17:54;9.80;99.90
36654;DHT22;22650;49.350;20.898;2023-11-21T09:20:30;9.90;99.90
36654;DHT22;22650;49.350;20.898;2023-11-21T09:23:03;9.90;99.90
36654;DHT22;22650;49.350;20.898;2023-11-21T09:25:37;10.00;99.90
36654;DHT22;22650;49.350;20.898;2023-11-21T09:28:11;10.00;99.90
36654;DHT22;22650;49.350;20.898;2023-11-21T09:30:44;10.10;99.90
36654;DHT22;22650;49.350;20.898;2023-11-21T09:33:18;10.20;99.90
36654;DHT22;22650;49.350;20.898;2023-11-21T09:35:55;10.30;99.90
36654;DHT22;22650;49.350;20.898;2023-11-21T09:38:29;10.50;99.90
36654;DHT22;22650;49.350;20.898;2023-11-21T09:41:04;10.60;99.90
36654;DHT22;22650;49.350;20.898;2023-11-21T09:43:39;10.80;99.90
36654;DHT22;22650;49.350;20.898;2023-11-21T09:46:14;10.90;99.90
36654;DHT22;22650;49.350;20.898;2023-11-21T09:48:52;11.00;99.90
36654;DHT22;22650;49.350;20.898;2023-11-21T09:51:28;11.10;99.90
36654;DHT22;22650;49.350;20.898;2023-11-21T09:54:06;11.00;99.90
36654;DHT22;22650;49.350;20.898;2023-11-21T09:56:41;10.90;99.90
36654;DHT22;22650;49.350;20.898;2023-11-21T09:59:15;10.90;99.90
36654;DHT22;22650;49.350;20.898;2023-11-21T10:01:49;10.80;99.90
36654;DHT22;22650;49.350;20.898;2023-11-21T10:04:23;10.60;99.90
36654;DHT22;22650;49.350;20.898;2023-11-21T10:07:03;10.50;99.90
36654;DHT22;22650;49.350;20.898;2023-11-21T10:09:37;10.50;99.90
36654;DHT22;22650;49.350;20.898;2023-11-21T10:12:12;10.50;99.90
36654;DHT22;22650;49.350;20.898;2023-11-21T10:14:48;10.50;99.90
36654;DHT22;22650;49.350;20.898;2023-11-21T10:17:25;10.50;99.90
36654;DHT22;22650;49.350;20.898;2023-11-21T10:20:04;10.60;99.90
36654;DHT22;22650;49.350;20.898;2023-11-21T10:22:45;10.70;99.90
36654;DHT22;22650;49.350;20.898;2023-11-21T10:25:19;10.70;99.90
36654;DHT22;22650;49.350;20.898;2023-11-21T10:27:58;10.70;99.90
36654;DHT22;22650;49.350;20.898;2023-11-21T10:30:34;10.70;99.90
36654;DHT22;22650;49.350;20.898;2023-11-21T10:33:09;10.80;99.90
36654;DHT22;22650;49.350;20.898;2023-11-21T10:35:44;10.80;99.90
36654;DHT22;22650;49.350;20.898;2023-11-21T10:38:25;10.80;99.90
36654;DHT22;22650;49.350;20.898;2023-11-21T10:41:00;10.80;99.90
36654;DHT22;22650;49.350;20.898;2023-11-21T10:43:38;10.90;99.90
36654;DHT22;22650;49.350;20.898;2023-11-21T10:46:12;10.90;99.90
36654;DHT22;22650;49.350;20.898;2023-11-21T10:48:52;11.00;99.90
36654;DHT22;22650;49.350;20.898;2023-11-21T10:51:26;11.00;99.90
36654;DHT22;22650;49.350;20.898;2023-11-21T10:54:02;11.20;99.90
36654;DHT22;22650;49.350;20.898;2023-11-21T10:56:36;11.20;99.90
36654;DHT22;22650;49.350;20.898;2023-11-21T10:59:13;11.30;99.90
36654;DHT22;22650;49.350;20.898;2023-11-21T11:01:47;11.40;99.90
36654;DHT22;22650;49.350;20.898;2023-11-21T11:04:23;11.50;99.90
36654;DHT22;22650;49.350;20.898;2023-11-21T11:07:01;11.40;99.90
36654;DHT22;22650;49.350;20.898;2023-11-21T11:09:39;11.50;99.90
36654;DHT22;22650;49.350;20.898;2023-11-21T11:12:13;11.40;99.90
36654;DHT22;22650;49.350;20.898;2023-11-21T11:14:49;11.40;99.90
36654;DHT22;22650;49.350;20.898;2023-11-21T11:17:24;11.30;99.90
36654;DHT22;22650;49.350;20.898;2023-11-21T11:19:58;11.30;99.90
36654;DHT22;22650;49.350;20.898;2023-11-21T11:22:37;11.30;99.90
36654;DHT22;22650;49.350;20.898;2023-11-21T11:25:30;11.30;99.90
36654;DHT22;22650;49.350;20.898;2023-11-21T11:28:11;11.20;99.90
36654;DHT22;22650;49.350;20.898;2023-11-21T11:30:54;11.10;99.90
36654;DHT22;22650;49.350;20.898;2023-11-21T11:33:39;11.10;99.90
36654;DHT22;22650;49.350;20.898;2023-11-21T11:36:18;11.00;99.90
36654;DHT22;22650;49.350;20.898;2023-11-21T11:38:55;11.00;99.90
36654;DHT22;22650;49.350;20.898;2023-11-21T11:41:32;11.00;99.90
36654;DHT22;22650;49.350;20.898;2023-11-21T11:47:26;10.90;99.90
36654;DHT22;22650;49.350;20.898;2023-11-21T11:50:07;10.90;99.90
36654;DHT22;22650;49.350;20.898;2023-11-21T11:52:46;10.80;99.90
36654;DHT22;22650;49.350;20.898;2023-11-21T11:55:22;10.80;99.90
36654;DHT22;22650;49.350;20.898;2023-11-21T11:57:58;10.80;99.90
36654;DHT22;22650;49.350;20.898;2023-11-21T12:00:34;10.70;99.90
36654;DHT22;22650;49.350;20.898;2023-11-21T12:03:10;10.70;99.90
36654;DHT22;22650;49.350;20.898;2023-11-21T12:05:46;10.70;99.90
36654;DHT22;22650;49.350;20.898;2023-11-21T12:08:21;10.70;99.90
36654;DHT22;22650;49.350;20.898;2023-11-21T12:11:04;10.70;99.90
36654;DHT22;22650;49.350;20.898;2023-11-21T12:13:39;10.70;99.90
36654;DHT22;22650;49.350;20.898;2023-11-21T12:16:13;10.60;99.90
36654;DHT22;22650;49.350;20.898;2023-11-21T12:18:46;10.60;99.90
36654;DHT22;22650;49.350;20.898;2023-11-21T12:21:20;10.60;99.90
36654;DHT22;22650;49.350;20.898;2023-11-21T12:23:54;10.50;99.90
36654;DHT22;22650;49.350;20.898;2023-11-21T12:26:28;10.50;99.90
36654;DHT22;22650;49.350;20.898;2023-11-21T12:29:03;10.40;99.90
36654;DHT22;22650;49.350;20.898;2023-11-21T12:31:45;10.40;99.90
36654;DHT22;22650;49.350;20.898;2023-11-21T12:34:22;10.40;99.90
36654;DHT22;22650;49.350;20.898;2023-11-21T12:36:56;10.40;99.90
36654;DHT22;22650;49.350;20.898;2023-11-21T12:39:29;10.30;99.90
36654;DHT22;22650;49.350;20.898;2023-11-21T12:42:04;10.30;99.90
36654;DHT22;22650;49.350;20.898;2023-11-21T12:44:46;10.30;99.90
36654;DHT22;22650;49.350;20.898;2023-11-21T12:47:20;10.30;99.90
36654;DHT22;22650;49.350;20.898;2023-11-21T12:49:54;10.20;99.90
36654;DHT22;22650;49.350;20.898;2023-11-21T12:52:32;10.20;99.90
36654;DHT22;22650;49.350;20.898;2023-11-21T12:55:06;10.30;99.90
36654;DHT22;22650;49.350;20.898;2023-11-21T12:57:43;10.30;99.90
36654;DHT22;22650;49.350;20.898;2023-11-21T13:00:20;10.30;99.90
36654;DHT22;22650;49.350;20.898;2023-11-21T13:03:00;10.20;99.90
36654;DHT22;22650;49.350;20.898;2023-11-21T13:05:35;10.20;99.90
36654;DHT22;22650;49.350;20.898;2023-11-21T13:08:12;10.20;99.90
36654;DHT22;22650;49.350;20.898;2023-11-21T13:10:46;10.10;99.90
36654;DHT22;22650;49.350;20.898;2023-11-21T13:13:22;10.10;99.90
36654;DHT22;22650;49.350;20.898;2023-11-21T13:16:00;10.10;99.90
36654;DHT22;22650;49.350;20.898;2023-11-21T13:18:36;10.00;99.90
36654;DHT22;22650;49.350;20.898;2023-11-21T13:21:12;10.00;99.90
36654;DHT22;22650;49.350;20.898;2023-11-21T13:23:47;9.90;99.90
36654;DHT22;22650;49.350;20.898;2023-11-21T13:26:23;9.90;99.90
36654;DHT22;22650;49.350;20.898;2023-11-21T13:28:58;9.90;99.90
36654;DHT22;22650;49.350;20.898;2023-11-21T13:31:33;10.00;99.90
36654;DHT22;22650;49.350;20.898;2023-11-21T13:34:09;10.00;99.90
36654;DHT22;22650;49.350;20.898;2023-11-21T13:36:52;10.10;99.90
36654;DHT22;22650;49.350;20.898;2023-11-21T13:39:30;10.20;99.90
36654;DHT22;22650;49.350;20.898;2023-11-21T13:42:05;10.30;99.90
36654;DHT22;22650;49.350;20.898;2023-11-21T13:44:38;10.30;99.90
36654;DHT22;22650;49.350;20.898;2023-11-21T13:47:17;10.40;99.90
36654;DHT22;22650;49.350;20.898;2023-11-21T13:49:51;10.40;99.90
36654;DHT22;22650;49.350;20.898;2023-11-21T13:52:26;10.40;99.90
36654;DHT22;22650;49.350;20.898;2023-11-21T13:55:00;10.40;99.90
36654;DHT22;22650;49.350;20.898;2023-11-21T13:57:38;10.40;99.90
36654;DHT22;22650;49.350;20.898;2023-11-21T14:00:13;10.40;99.90
36654;DHT22;22650;49.350;20.898;2023-11-21T14:03:09;10.40;99.90
36654;DHT22;22650;49.350;20.898;2023-11-21T14:05:51;10.30;99.90
36654;DHT22;22650;49.350;20.898;2023-11-21T14:08:28;10.30;99.90
36654;DHT22;22650;49.350;20.898;2023-11-21T14:11:03;10.20;99.90
36654;DHT22;22650;49.350;20.898;2023-11-21T14:13:39;10.10;99.90
36654;DHT22;22650;49.350;20.898;2023-11-21T14:16:18;10.00;99.90
36654;DHT22;22650;49.350;20.898;2023-11-21T14:18:54;9.80;99.90
36654;DHT22;22650;49.350;20.898;2023-11-21T14:21:34;9.70;99.90
36654;DHT22;22650;49.350;20.898;2023-11-21T14:24:08;9.60;99.90
36654;DHT22;22650;49.350;20.898;2023-11-21T14:26:42;9.60;99.90
36654;DHT22;22650;49.350;20.898;2023-11-21T14:29:19;9.60;99.90
36654;DHT22;22650;49.350;20.898;2023-11-21T14:31:53;9.60;99.90
36654;DHT22;22650;49.350;20.898;2023-11-21T14:34:32;9.50;99.90
36654;DHT22;22650;49.350;20.898;2023-11-21T14:37:05;9.50;99.90
36654;DHT22;22650;49.350;20.898;2023-11-21T14:39:39;9.50;99.90
36654;DHT22;22650;49.350;20.898;2023-11-21T14:42:17;9.40;99.90
36654;DHT22;22650;49.350;20.898;2023-11-21T14:44:57;9.40;99.90
36654;DHT22;22650;49.350;20.898;2023-11-21T14:47:35;9.30;99.90
36654;DHT22;22650;49.350;20.898;2023-11-21T14:50:12;9.30;99.90
36654;DHT22;22650;49.350;20.898;2023-11-21T14:53:01;9.20;99.90
36654;DHT22;22650;49.350;20.898;2023-11-21T14:55:38;9.20;99.90
36654;DHT22;22650;49.350;20.898;2023-11-21T14:58:25;9.10;99.90
36654;DHT22;22650;49.350;20.898;2023-11-21T15:01:01;9.00;99.90
36654;DHT22;22650;49.350;20.898;2023-11-21T15:03:34;9.00;99.90
36654;DHT22;22650;49.350;20.898;2023-11-21T15:06:24;8.90;99.90
36654;DHT22;22650;49.350;20.898;2023-11-21T15:09:02;8.90;99.90
36654;DHT22;22650;49.350;20.898;2023-11-21T15:11:56;8.90;99.90
36654;DHT22;22650;49.350;20.898;2023-11-21T15:14:36;8.80;99.90
36654;DHT22;22650;49.350;20.898;2023-11-21T15:17:10;8.80;99.90
36654;DHT22;22650;49.350;20.898;2023-11-21T15:19:46;8.70;99.90
36654;DHT22;22650;49.350;20.898;2023-11-21T15:22:21;8.60;99.90
36654;DHT22;22650;49.350;20.898;2023-11-21T15:24:55;8.60;99.90
36654;DHT22;22650;49.350;20.898;2023-11-21T15:27:30;8.60;99.90
36654;DHT22;22650;49.350;20.898;2023-11-21T15:30:06;8.60;99.90
36654;DHT22;22650;49.350;20.898;2023-11-21T15:32:40;8.50;99.90
36654;DHT22;22650;49.350;20.898;2023-11-21T15:35:14;8.50;99.90
36654;DHT22;22650;49.350;20.898;2023-11-21T15:37:49;8.40;99.90
36654;DHT22;22650;49.350;20.898;2023-11-21T15:40:23;8.40;99.90
36654;DHT22;22650;49.350;20.898;2023-11-21T15:42:57;8.40;99.90
36654;DHT22;22650;49.350;20.898;2023-11-21T15:45:31;8.30;99.90
36654;DHT22;22650;49.350;20.898;2023-11-21T15:48:05;8.20;99.90
36654;DHT22;22650;49.350;20.898;2023-11-21T15:50:39;8.10;99.90
36654;DHT22;22650;49.350;20.898;2023-11-21T15:53:14;8.00;99.90
36654;DHT22;22650;49.350;20.898;2023-11-21T15:55:48;7.90;99.90
36654;DHT22;22650;49.350;20.898;2023-11-21T15:58:23;7.90;99.90
36654;DHT22;22650;49.350;20.898;2023-11-21T16:00:58;7.90;99.90
36654;DHT22;22650;49.350;20.898;2023-11-21T16:03:32;7.90;99.90
36654;DHT22;22650;49.350;20.898;2023-11-21T16:06:06;7.80;99.90
36654;DHT22;22650;49.350;20.898;2023-11-21T16:08:43;7.80;99.90
36654;DHT22;22650;49.350;20.898;2023-11-21T16:11:17;7.80;99.90
36654;DHT22;22650;49.350;20.898;2023-11-21T16:13:51;7.70;99.90
36654;DHT22;22650;49.350;20.898;2023-11-21T16:16:25;7.70;99.90
36654;DHT22;22650;49.350;20.898;2023-11-21T16:18:58;7.60;99.90
36654;DHT22;22650;49.350;20.898;2023-11-21T16:21:32;7.50;99.90